Portada
METAR-TAF:

METAR-TAF

Aeroports :

Aeroport de Marràqueix

Marràqueix, Marroc

latitud: 31-37N, longitud: 008-02W, altitud: 468 m

Observació

L'informe es va fer fa 41 minuts, a les 06:30 UTC
Vent 4 kt del Nord-Est, variant entre Nord i Est
Temperatura 17°C
Humitat 72%
Pressió 1018 hPa
Visibilitat 10 km o més
sense núvols per sota de 1500 mi sense presència de cumulonimbus.

METAR: GMMX 200630Z 05004KT 360V080 CAVOK 17/12 Q1018 NOSIG

Hora: 08:11 (07:11 UTC)

Pronòstic

L'informe es va fer fa 2 hores i 11 minuts, a les 05:00 UTC
Pronòstic vàlid del 20 a les 06 UTC al 21 a les 12 UTC
Vent 6 kt del Nord/Nord-Est
Visibilitat 10 km o més
sense núvols per sota de 1500 mi sense presència de cumulonimbus.
Temporalment
l' 20 a les 19 UTC al 20 a les 22 UTC
Vent 12 kt del Nord/Nord-Oest

TAF: GMMX 200500Z 2006/2112 02006KT CAVOK TEMPO 2019/2022 34012KT

Observacions i pronòstics meteorològics de més de 4000 aeroports (METAR i TAF).

Les estacions disponibles són els punts grocs i vermells al mapa.

Posi el ratolí al punt desitjat per veure el nom de l'estació.

Feu clic per veure les observacions i els pronòstics meteorològics.

Per canviar el mapa: feu clic els botons verds amb una creu de color negre per apropar; al botó verd amb un guió per allunyar la imatge; o en les fletxes verdes per a mapes adjacents.


METAR-TAF: